sensor_id;sensor_type;location;lat;lon;timestamp;temperature;humidity
19945;DHT22;10134;50.952;6.930;2023-06-05T00:00:17;19.90;63.40
19945;DHT22;10134;50.952;6.930;2023-06-05T00:02:44;19.90;63.50
19945;DHT22;10134;50.952;6.930;2023-06-05T00:05:11;19.90;63.40
19945;DHT22;10134;50.952;6.930;2023-06-05T00:07:39;19.80;63.40
19945;DHT22;10134;50.952;6.930;2023-06-05T00:10:08;19.80;63.50
19945;DHT22;10134;50.952;6.930;2023-06-05T00:12:36;19.80;63.60
19945;DHT22;10134;50.952;6.930;2023-06-05T00:15:04;19.80;63.80
19945;DHT22;10134;50.952;6.930;2023-06-05T00:17:32;19.70;63.90
19945;DHT22;10134;50.952;6.930;2023-06-05T00:19:59;19.60;64.10
19945;DHT22;10134;50.952;6.930;2023-06-05T00:22:27;19.50;64.30
19945;DHT22;10134;50.952;6.930;2023-06-05T00:25:01;19.50;64.60
19945;DHT22;10134;50.952;6.930;2023-06-05T00:27:28;19.50;64.60
19945;DHT22;10134;50.952;6.930;2023-06-05T00:29:56;19.50;64.60
19945;DHT22;10134;50.952;6.930;2023-06-05T00:32:23;19.40;64.80
19945;DHT22;10134;50.952;6.930;2023-06-05T00:34:50;19.30;64.70
19945;DHT22;10134;50.952;6.930;2023-06-05T00:37:20;19.30;64.90
19945;DHT22;10134;50.952;6.930;2023-06-05T00:39:47;19.30;65.00
19945;DHT22;10134;50.952;6.930;2023-06-05T00:42:14;19.30;65.20
19945;DHT22;10134;50.952;6.930;2023-06-05T00:44:42;19.20;65.30
19945;DHT22;10134;50.952;6.930;2023-06-05T00:47:10;19.30;65.40
19945;DHT22;10134;50.952;6.930;2023-06-05T00:49:38;19.20;65.60
19945;DHT22;10134;50.952;6.930;2023-06-05T00:52:06;19.10;65.80
19945;DHT22;10134;50.952;6.930;2023-06-05T00:54:34;19.00;66.30
19945;DHT22;10134;50.952;6.930;2023-06-05T00:57:01;18.90;66.60
19945;DHT22;10134;50.952;6.930;2023-06-05T00:59:29;18.90;66.90
19945;DHT22;10134;50.952;6.930;2023-06-05T01:01:59;18.90;67.00
19945;DHT22;10134;50.952;6.930;2023-06-05T01:04:26;18.90;67.20
19945;DHT22;10134;50.952;6.930;2023-06-05T01:06:55;18.90;67.60
19945;DHT22;10134;50.952;6.930;2023-06-05T01:09:25;18.80;67.60
19945;DHT22;10134;50.952;6.930;2023-06-05T01:14:22;18.70;68.00
19945;DHT22;10134;50.952;6.930;2023-06-05T01:16:51;18.70;68.20
19945;DHT22;10134;50.952;6.930;2023-06-05T01:19:24;18.60;68.20
19945;DHT22;10134;50.952;6.930;2023-06-05T01:21:59;18.60;68.40
19945;DHT22;10134;50.952;6.930;2023-06-05T01:24:27;18.50;68.50
19945;DHT22;10134;50.952;6.930;2023-06-05T01:27:07;18.50;68.60
19945;DHT22;10134;50.952;6.930;2023-06-05T01:32:40;18.40;68.90
19945;DHT22;10134;50.952;6.930;2023-06-05T01:35:12;18.40;68.80
19945;DHT22;10134;50.952;6.930;2023-06-05T01:37:46;18.40;69.10
19945;DHT22;10134;50.952;6.930;2023-06-05T01:40:23;18.30;69.20
19945;DHT22;10134;50.952;6.930;2023-06-05T01:42:52;18.20;69.40
19945;DHT22;10134;50.952;6.930;2023-06-05T01:45:21;18.20;69.70
19945;DHT22;10134;50.952;6.930;2023-06-05T01:47:49;18.20;69.90
19945;DHT22;10134;50.952;6.930;2023-06-05T01:50:17;18.10;70.20
19945;DHT22;10134;50.952;6.930;2023-06-05T01:52:46;18.00;70.40
19945;DHT22;10134;50.952;6.930;2023-06-05T01:55:16;18.00;70.60
19945;DHT22;10134;50.952;6.930;2023-06-05T01:57:45;18.00;70.80
19945;DHT22;10134;50.952;6.930;2023-06-05T02:00:13;18.00;70.80
19945;DHT22;10134;50.952;6.930;2023-06-05T02:02:46;17.90;70.90
19945;DHT22;10134;50.952;6.930;2023-06-05T02:05:16;17.80;71.10
19945;DHT22;10134;50.952;6.930;2023-06-05T02:07:46;17.70;71.40
19945;DHT22;10134;50.952;6.930;2023-06-05T02:10:16;17.70;71.50
19945;DHT22;10134;50.952;6.930;2023-06-05T02:12:46;17.60;71.90
19945;DHT22;10134;50.952;6.930;2023-06-05T02:15:14;17.60;72.00
19945;DHT22;10134;50.952;6.930;2023-06-05T02:17:44;17.60;72.10
19945;DHT22;10134;50.952;6.930;2023-06-05T02:20:23;17.60;72.20
19945;DHT22;10134;50.952;6.930;2023-06-05T02:22:51;17.60;72.20
19945;DHT22;10134;50.952;6.930;2023-06-05T02:25:19;17.50;72.50
19945;DHT22;10134;50.952;6.930;2023-06-05T02:27:48;17.50;72.70
19945;DHT22;10134;50.952;6.930;2023-06-05T02:30:15;17.40;73.10
19945;DHT22;10134;50.952;6.930;2023-06-05T02:32:43;17.40;73.10
19945;DHT22;10134;50.952;6.930;2023-06-05T02:35:13;17.30;73.20
19945;DHT22;10134;50.952;6.930;2023-06-05T02:37:41;17.40;73.40
19945;DHT22;10134;50.952;6.930;2023-06-05T02:40:12;17.40;73.60
19945;DHT22;10134;50.952;6.930;2023-06-05T02:42:40;17.40;73.60
19945;DHT22;10134;50.952;6.930;2023-06-05T02:45:09;17.30;73.70
19945;DHT22;10134;50.952;6.930;2023-06-05T02:47:37;17.30;73.90
19945;DHT22;10134;50.952;6.930;2023-06-05T02:50:06;17.10;74.10
19945;DHT22;10134;50.952;6.930;2023-06-05T02:52:37;17.20;74.50
19945;DHT22;10134;50.952;6.930;2023-06-05T02:55:15;17.10;74.60
19945;DHT22;10134;50.952;6.930;2023-06-05T02:57:45;17.00;75.10
19945;DHT22;10134;50.952;6.930;2023-06-05T03:00:20;17.00;75.10
19945;DHT22;10134;50.952;6.930;2023-06-05T03:02:52;17.00;75.20
19945;DHT22;10134;50.952;6.930;2023-06-05T03:05:24;17.10;75.30
19945;DHT22;10134;50.952;6.930;2023-06-05T03:07:55;17.10;75.50
19945;DHT22;10134;50.952;6.930;2023-06-05T03:10:23;17.10;75.70
19945;DHT22;10134;50.952;6.930;2023-06-05T03:12:51;17.10;75.90
19945;DHT22;10134;50.952;6.930;2023-06-05T03:15:18;17.00;76.20
19945;DHT22;10134;50.952;6.930;2023-06-05T03:17:48;16.80;76.80
19945;DHT22;10134;50.952;6.930;2023-06-05T03:20:18;16.70;77.20
19945;DHT22;10134;50.952;6.930;2023-06-05T03:22:45;16.70;77.70
19945;DHT22;10134;50.952;6.930;2023-06-05T03:25:14;16.60;78.00
19945;DHT22;10134;50.952;6.930;2023-06-05T03:27:43;16.60;78.40
19945;DHT22;10134;50.952;6.930;2023-06-05T03:30:12;16.50;78.70
19945;DHT22;10134;50.952;6.930;2023-06-05T03:32:47;16.50;78.90
19945;DHT22;10134;50.952;6.930;2023-06-05T03:35:15;16.60;79.10
19945;DHT22;10134;50.952;6.930;2023-06-05T03:37:42;16.60;79.30
19945;DHT22;10134;50.952;6.930;2023-06-05T03:40:11;16.50;79.50
19945;DHT22;10134;50.952;6.930;2023-06-05T03:42:40;16.50;80.00
19945;DHT22;10134;50.952;6.930;2023-06-05T03:45:07;16.40;80.20
19945;DHT22;10134;50.952;6.930;2023-06-05T03:47:37;16.40;80.60
19945;DHT22;10134;50.952;6.930;2023-06-05T03:50:08;16.40;80.70
19945;DHT22;10134;50.952;6.930;2023-06-05T03:52:39;16.40;81.30
19945;DHT22;10134;50.952;6.930;2023-06-05T03:55:08;16.40;81.60
19945;DHT22;10134;50.952;6.930;2023-06-05T03:57:37;16.40;81.90
19945;DHT22;10134;50.952;6.930;2023-06-05T04:00:10;16.40;82.00
19945;DHT22;10134;50.952;6.930;2023-06-05T04:02:50;16.40;82.40
19945;DHT22;10134;50.952;6.930;2023-06-05T04:05:18;16.40;83.00
19945;DHT22;10134;50.952;6.930;2023-06-05T04:07:45;16.40;83.30
19945;DHT22;10134;50.952;6.930;2023-06-05T04:10:13;16.30;83.70
19945;DHT22;10134;50.952;6.930;2023-06-05T04:12:40;16.40;84.10
19945;DHT22;10134;50.952;6.930;2023-06-05T04:15:08;16.40;84.20
19945;DHT22;10134;50.952;6.930;2023-06-05T04:17:37;16.50;84.50
19945;DHT22;10134;50.952;6.930;2023-06-05T04:20:06;16.40;85.20
19945;DHT22;10134;50.952;6.930;2023-06-05T04:22:38;16.50;85.30
19945;DHT22;10134;50.952;6.930;2023-06-05T04:25:05;16.50;86.20
19945;DHT22;10134;50.952;6.930;2023-06-05T04:27:33;16.50;85.80
19945;DHT22;10134;50.952;6.930;2023-06-05T04:30:00;16.50;86.10
19945;DHT22;10134;50.952;6.930;2023-06-05T04:32:28;16.50;86.70
19945;DHT22;10134;50.952;6.930;2023-06-05T04:34:56;16.50;87.20
19945;DHT22;10134;50.952;6.930;2023-06-05T04:37:23;16.50;87.40
19945;DHT22;10134;50.952;6.930;2023-06-05T04:39:51;16.40;88.10
19945;DHT22;10134;50.952;6.930;2023-06-05T04:42:19;16.40;88.30
19945;DHT22;10134;50.952;6.930;2023-06-05T04:44:57;16.50;88.60
19945;DHT22;10134;50.952;6.930;2023-06-05T04:47:30;16.50;88.80
19945;DHT22;10134;50.952;6.930;2023-06-05T04:50:05;16.50;89.00
19945;DHT22;10134;50.952;6.930;2023-06-05T04:52:34;16.50;89.40
19945;DHT22;10134;50.952;6.930;2023-06-05T04:55:02;16.60;89.80
19945;DHT22;10134;50.952;6.930;2023-06-05T04:57:31;16.50;90.10
19945;DHT22;10134;50.952;6.930;2023-06-05T05:00:01;16.50;90.30
19945;DHT22;10134;50.952;6.930;2023-06-05T05:02:31;16.50;90.50
19945;DHT22;10134;50.952;6.930;2023-06-05T05:04:59;16.50;90.50
19945;DHT22;10134;50.952;6.930;2023-06-05T05:07:26;16.60;90.70
19945;DHT22;10134;50.952;6.930;2023-06-05T05:09:55;16.70;90.90
19945;DHT22;10134;50.952;6.930;2023-06-05T05:12:23;16.70;90.90
19945;DHT22;10134;50.952;6.930;2023-06-05T05:14:50;16.80;91.00
19945;DHT22;10134;50.952;6.930;2023-06-05T05:17:19;16.80;91.00
19945;DHT22;10134;50.952;6.930;2023-06-05T05:19:47;16.90;91.20
19945;DHT22;10134;50.952;6.930;2023-06-05T05:22:14;17.00;91.20
19945;DHT22;10134;50.952;6.930;2023-06-05T05:24:41;17.00;91.30
19945;DHT22;10134;50.952;6.930;2023-06-05T05:27:09;17.00;91.40
19945;DHT22;10134;50.952;6.930;2023-06-05T05:29:37;17.10;91.40
19945;DHT22;10134;50.952;6.930;2023-06-05T05:32:04;17.10;91.50
19945;DHT22;10134;50.952;6.930;2023-06-05T05:34:32;17.10;91.60
19945;DHT22;10134;50.952;6.930;2023-06-05T05:37:01;17.20;92.00
19945;DHT22;10134;50.952;6.930;2023-06-05T05:39:28;17.10;91.70
19945;DHT22;10134;50.952;6.930;2023-06-05T05:41:56;17.20;91.70
19945;DHT22;10134;50.952;6.930;2023-06-05T05:44:23;17.30;91.70
19945;DHT22;10134;50.952;6.930;2023-06-05T05:46:50;17.30;91.60
19945;DHT22;10134;50.952;6.930;2023-06-05T05:49:20;17.40;91.50
19945;DHT22;10134;50.952;6.930;2023-06-05T05:51:47;17.40;91.40
19945;DHT22;10134;50.952;6.930;2023-06-05T05:54:14;17.50;91.50
19945;DHT22;10134;50.952;6.930;2023-06-05T05:56:41;17.50;91.30
19945;DHT22;10134;50.952;6.930;2023-06-05T05:59:09;17.60;91.30
19945;DHT22;10134;50.952;6.930;2023-06-05T06:01:36;17.60;91.10
19945;DHT22;10134;50.952;6.930;2023-06-05T06:04:05;17.60;91.10
19945;DHT22;10134;50.952;6.930;2023-06-05T06:06:32;17.60;91.20
19945;DHT22;10134;50.952;6.930;2023-06-05T06:09:00;17.70;91.10
19945;DHT22;10134;50.952;6.930;2023-06-05T06:11:29;17.70;90.80
19945;DHT22;10134;50.952;6.930;2023-06-05T06:13:56;17.80;90.80
19945;DHT22;10134;50.952;6.930;2023-06-05T06:16:23;17.80;90.80
19945;DHT22;10134;50.952;6.930;2023-06-05T06:18:52;17.80;90.80
19945;DHT22;10134;50.952;6.930;2023-06-05T06:21:19;17.90;90.80
19945;DHT22;10134;50.952;6.930;2023-06-05T06:23:47;17.90;90.90
19945;DHT22;10134;50.952;6.930;2023-06-05T06:26:14;18.00;90.90
19945;DHT22;10134;50.952;6.930;2023-06-05T06:28:42;18.10;90.80
19945;DHT22;10134;50.952;6.930;2023-06-05T06:31:10;18.10;90.50
19945;DHT22;10134;50.952;6.930;2023-06-05T06:33:38;18.20;90.40
19945;DHT22;10134;50.952;6.930;2023-06-05T06:36:05;18.20;90.40
19945;DHT22;10134;50.952;6.930;2023-06-05T06:38:32;18.20;90.40
19945;DHT22;10134;50.952;6.930;2023-06-05T06:40:59;18.30;90.40
19945;DHT22;10134;50.952;6.930;2023-06-05T06:43:27;18.30;89.90
19945;DHT22;10134;50.952;6.930;2023-06-05T06:46:02;18.30;89.60
19945;DHT22;10134;50.952;6.930;2023-06-05T06:48:29;18.30;89.40
19945;DHT22;10134;50.952;6.930;2023-06-05T06:50:56;18.40;88.70
19945;DHT22;10134;50.952;6.930;2023-06-05T06:53:24;18.50;88.70
19945;DHT22;10134;50.952;6.930;2023-06-05T06:55:51;18.50;88.70
19945;DHT22;10134;50.952;6.930;2023-06-05T06:58:18;18.60;88.80
19945;DHT22;10134;50.952;6.930;2023-06-05T07:00:46;18.70;89.10
19945;DHT22;10134;50.952;6.930;2023-06-05T07:03:14;18.60;88.90
19945;DHT22;10134;50.952;6.930;2023-06-05T07:05:43;18.70;88.50
19945;DHT22;10134;50.952;6.930;2023-06-05T07:08:10;18.80;89.00
19945;DHT22;10134;50.952;6.930;2023-06-05T07:10:38;18.80;87.70
19945;DHT22;10134;50.952;6.930;2023-06-05T07:13:06;18.80;87.50
19945;DHT22;10134;50.952;6.930;2023-06-05T07:15:33;18.90;87.30
19945;DHT22;10134;50.952;6.930;2023-06-05T07:18:00;18.90;86.70
19945;DHT22;10134;50.952;6.930;2023-06-05T07:20:28;18.90;86.60
19945;DHT22;10134;50.952;6.930;2023-06-05T07:22:56;19.00;86.80
19945;DHT22;10134;50.952;6.930;2023-06-05T07:25:23;19.00;86.80
19945;DHT22;10134;50.952;6.930;2023-06-05T07:27:52;19.10;86.70
19945;DHT22;10134;50.952;6.930;2023-06-05T07:30:19;19.10;86.20
19945;DHT22;10134;50.952;6.930;2023-06-05T07:32:46;19.20;85.90
19945;DHT22;10134;50.952;6.930;2023-06-05T07:35:14;19.20;85.70
19945;DHT22;10134;50.952;6.930;2023-06-05T07:37:41;19.30;85.60
19945;DHT22;10134;50.952;6.930;2023-06-05T07:40:09;19.30;85.70
19945;DHT22;10134;50.952;6.930;2023-06-05T07:42:36;19.40;85.80
19945;DHT22;10134;50.952;6.930;2023-06-05T07:45:04;19.40;85.50
19945;DHT22;10134;50.952;6.930;2023-06-05T07:47:32;19.50;85.30
19945;DHT22;10134;50.952;6.930;2023-06-05T07:50:01;19.50;85.20
19945;DHT22;10134;50.952;6.930;2023-06-05T07:52:30;19.60;85.30
19945;DHT22;10134;50.952;6.930;2023-06-05T07:54:58;19.60;85.20
19945;DHT22;10134;50.952;6.930;2023-06-05T07:57:25;19.70;85.10
19945;DHT22;10134;50.952;6.930;2023-06-05T07:59:54;19.70;84.80
19945;DHT22;10134;50.952;6.930;2023-06-05T08:02:22;19.70;84.40
19945;DHT22;10134;50.952;6.930;2023-06-05T08:04:50;19.80;84.40
19945;DHT22;10134;50.952;6.930;2023-06-05T08:07:18;19.80;84.30
19945;DHT22;10134;50.952;6.930;2023-06-05T08:09:45;19.90;84.20
19945;DHT22;10134;50.952;6.930;2023-06-05T08:12:12;20.00;83.90
19945;DHT22;10134;50.952;6.930;2023-06-05T08:14:40;20.00;83.60
19945;DHT22;10134;50.952;6.930;2023-06-05T08:17:07;20.10;83.00
19945;DHT22;10134;50.952;6.930;2023-06-05T08:19:34;20.10;82.60
19945;DHT22;10134;50.952;6.930;2023-06-05T08:22:02;20.20;82.60
19945;DHT22;10134;50.952;6.930;2023-06-05T08:24:31;20.20;82.40
19945;DHT22;10134;50.952;6.930;2023-06-05T08:26:59;20.30;82.20
19945;DHT22;10134;50.952;6.930;2023-06-05T08:29:27;20.30;82.00
19945;DHT22;10134;50.952;6.930;2023-06-05T08:31:55;20.30;82.20
19945;DHT22;10134;50.952;6.930;2023-06-05T08:34:22;20.40;82.80
19945;DHT22;10134;50.952;6.930;2023-06-05T08:36:51;20.40;82.70
19945;DHT22;10134;50.952;6.930;2023-06-05T08:39:18;20.50;82.50
19945;DHT22;10134;50.952;6.930;2023-06-05T08:41:50;20.60;82.20
19945;DHT22;10134;50.952;6.930;2023-06-05T08:44:18;20.60;82.00
19945;DHT22;10134;50.952;6.930;2023-06-05T08:46:46;20.60;82.20
19945;DHT22;10134;50.952;6.930;2023-06-05T08:49:17;20.70;82.20
19945;DHT22;10134;50.952;6.930;2023-06-05T08:51:49;20.80;81.90
19945;DHT22;10134;50.952;6.930;2023-06-05T08:54:19;20.80;81.60
19945;DHT22;10134;50.952;6.930;2023-06-05T08:56:47;20.80;81.60
19945;DHT22;10134;50.952;6.930;2023-06-05T08:59:17;20.90;81.90
19945;DHT22;10134;50.952;6.930;2023-06-05T09:01:48;21.00;81.60
19945;DHT22;10134;50.952;6.930;2023-06-05T09:04:16;21.00;81.60
19945;DHT22;10134;50.952;6.930;2023-06-05T09:06:46;21.10;81.70
19945;DHT22;10134;50.952;6.930;2023-06-05T09:09:19;21.10;81.90
19945;DHT22;10134;50.952;6.930;2023-06-05T09:11:46;21.20;81.30
19945;DHT22;10134;50.952;6.930;2023-06-05T09:14:25;21.20;80.90
19945;DHT22;10134;50.952;6.930;2023-06-05T09:16:53;21.30;80.80
19945;DHT22;10134;50.952;6.930;2023-06-05T09:19:20;21.40;80.20
19945;DHT22;10134;50.952;6.930;2023-06-05T09:21:55;21.40;78.50
19945;DHT22;10134;50.952;6.930;2023-06-05T09:24:22;21.50;78.20
19945;DHT22;10134;50.952;6.930;2023-06-05T09:26:55;21.60;76.40
19945;DHT22;10134;50.952;6.930;2023-06-05T09:29:28;21.60;75.30
19945;DHT22;10134;50.952;6.930;2023-06-05T09:31:58;21.60;75.10
19945;DHT22;10134;50.952;6.930;2023-06-05T09:34:28;21.70;74.70
19945;DHT22;10134;50.952;6.930;2023-06-05T09:36:57;21.80;75.40
19945;DHT22;10134;50.952;6.930;2023-06-05T09:39:26;21.80;75.90
19945;DHT22;10134;50.952;6.930;2023-06-05T09:41:55;21.90;75.80
19945;DHT22;10134;50.952;6.930;2023-06-05T09:44:24;21.90;74.90
19945;DHT22;10134;50.952;6.930;2023-06-05T09:47:08;22.00;73.80
19945;DHT22;10134;50.952;6.930;2023-06-05T09:52:10;22.10;72.10
19945;DHT22;10134;50.952;6.930;2023-06-05T09:54:40;22.20;70.50
19945;DHT22;10134;50.952;6.930;2023-06-05T09:57:10;22.20;70.10
19945;DHT22;10134;50.952;6.930;2023-06-05T09:59:54;22.30;70.80
19945;DHT22;10134;50.952;6.930;2023-06-05T10:02:30;22.30;70.40
19945;DHT22;10134;50.952;6.930;2023-06-05T10:05:00;22.40;68.80
19945;DHT22;10134;50.952;6.930;2023-06-05T10:07:33;22.50;69.10
19945;DHT22;10134;50.952;6.930;2023-06-05T10:10:02;22.50;69.30
19945;DHT22;10134;50.952;6.930;2023-06-05T10:12:30;22.60;69.00
19945;DHT22;10134;50.952;6.930;2023-06-05T10:14:58;22.60;68.20
19945;DHT22;10134;50.952;6.930;2023-06-05T10:17:27;22.70;67.20
19945;DHT22;10134;50.952;6.930;2023-06-05T10:19:55;22.80;67.10
19945;DHT22;10134;50.952;6.930;2023-06-05T10:22:23;22.80;65.80
19945;DHT22;10134;50.952;6.930;2023-06-05T10:25:02;22.90;65.90
19945;DHT22;10134;50.952;6.930;2023-06-05T10:36:23;23.10;62.50
19945;DHT22;10134;50.952;6.930;2023-06-05T10:38:52;23.10;62.20
19945;DHT22;10134;50.952;6.930;2023-06-05T10:41:19;23.20;62.50
19945;DHT22;10134;50.952;6.930;2023-06-05T10:43:52;23.30;62.10
19945;DHT22;10134;50.952;6.930;2023-06-05T10:46:39;23.30;60.20
19945;DHT22;10134;50.952;6.930;2023-06-05T10:49:19;23.30;60.20
19945;DHT22;10134;50.952;6.930;2023-06-05T10:51:48;23.40;59.50
19945;DHT22;10134;50.952;6.930;2023-06-05T10:57:00;23.40;61.20
19945;DHT22;10134;50.952;6.930;2023-06-05T11:07:26;23.40;64.80
19945;DHT22;10134;50.952;6.930;2023-06-05T11:10:10;23.40;68.10
19945;DHT22;10134;50.952;6.930;2023-06-05T11:12:54;23.40;64.70
19945;DHT22;10134;50.952;6.930;2023-06-05T11:15:38;23.30;69.10
19945;DHT22;10134;50.952;6.930;2023-06-05T11:18:33;23.30;70.80
19945;DHT22;10134;50.952;6.930;2023-06-05T11:21:01;23.30;70.30
19945;DHT22;10134;50.952;6.930;2023-06-05T11:23:29;23.20;69.70
19945;DHT22;10134;50.952;6.930;2023-06-05T11:25:58;23.30;67.70
19945;DHT22;10134;50.952;6.930;2023-06-05T11:28:45;23.30;65.30
19945;DHT22;10134;50.952;6.930;2023-06-05T11:31:12;23.30;65.40
19945;DHT22;10134;50.952;6.930;2023-06-05T11:33:40;23.20;64.80
19945;DHT22;10134;50.952;6.930;2023-06-05T11:36:07;23.30;66.00
19945;DHT22;10134;50.952;6.930;2023-06-05T11:38:36;23.30;65.60
19945;DHT22;10134;50.952;6.930;2023-06-05T11:41:07;23.30;64.70
19945;DHT22;10134;50.952;6.930;2023-06-05T11:43:41;23.30;63.00
19945;DHT22;10134;50.952;6.930;2023-06-05T11:46:09;23.30;62.20
19945;DHT22;10134;50.952;6.930;2023-06-05T11:48:45;23.40;62.90
19945;DHT22;10134;50.952;6.930;2023-06-05T11:51:12;23.40;64.20
19945;DHT22;10134;50.952;6.930;2023-06-05T11:53:45;23.40;64.80
19945;DHT22;10134;50.952;6.930;2023-06-05T11:56:14;23.40;65.60
19945;DHT22;10134;50.952;6.930;2023-06-05T11:58:44;23.40;65.20
19945;DHT22;10134;50.952;6.930;2023-06-05T12:01:18;23.50;64.20
19945;DHT22;10134;50.952;6.930;2023-06-05T12:04:05;23.50;63.30
19945;DHT22;10134;50.952;6.930;2023-06-05T12:06:44;23.50;61.90
19945;DHT22;10134;50.952;6.930;2023-06-05T12:09:14;23.60;62.50
19945;DHT22;10134;50.952;6.930;2023-06-05T12:11:43;23.60;64.70
19945;DHT22;10134;50.952;6.930;2023-06-05T12:14:30;23.60;61.00
19945;DHT22;10134;50.952;6.930;2023-06-05T12:16:58;23.70;59.40
19945;DHT22;10134;50.952;6.930;2023-06-05T12:19:28;23.70;61.60
19945;DHT22;10134;50.952;6.930;2023-06-05T12:22:05;23.70;62.30
19945;DHT22;10134;50.952;6.930;2023-06-05T12:24:33;23.80;63.30
19945;DHT22;10134;50.952;6.930;2023-06-05T12:27:02;23.80;60.50
19945;DHT22;10134;50.952;6.930;2023-06-05T12:29:36;23.90;59.60
19945;DHT22;10134;50.952;6.930;2023-06-05T12:32:25;23.90;59.80
19945;DHT22;10134;50.952;6.930;2023-06-05T12:34:53;24.00;59.80
19945;DHT22;10134;50.952;6.930;2023-06-05T12:37:33;24.10;59.20
19945;DHT22;10134;50.952;6.930;2023-06-05T12:40:05;24.10;58.90
19945;DHT22;10134;50.952;6.930;2023-06-05T12:42:37;24.20;58.70
19945;DHT22;10134;50.952;6.930;2023-06-05T12:45:05;24.20;59.40
19945;DHT22;10134;50.952;6.930;2023-06-05T12:47:34;24.30;58.60
19945;DHT22;10134;50.952;6.930;2023-06-05T12:50:03;24.40;59.50
19945;DHT22;10134;50.952;6.930;2023-06-05T12:52:31;24.40;58.00
19945;DHT22;10134;50.952;6.930;2023-06-05T12:54:59;24.60;58.00
19945;DHT22;10134;50.952;6.930;2023-06-05T12:57:27;24.60;57.70
19945;DHT22;10134;50.952;6.930;2023-06-05T12:59:54;24.70;57.50
19945;DHT22;10134;50.952;6.930;2023-06-05T13:02:23;24.80;57.80
19945;DHT22;10134;50.952;6.930;2023-06-05T13:04:51;24.90;58.00
19945;DHT22;10134;50.952;6.930;2023-06-05T13:07:18;25.00;59.40
19945;DHT22;10134;50.952;6.930;2023-06-05T13:09:48;25.10;58.20
19945;DHT22;10134;50.952;6.930;2023-06-05T13:12:18;25.20;57.70
19945;DHT22;10134;50.952;6.930;2023-06-05T13:14:46;25.30;57.10
19945;DHT22;10134;50.952;6.930;2023-06-05T13:17:13;25.40;57.00
19945;DHT22;10134;50.952;6.930;2023-06-05T13:19:41;25.50;57.40
19945;DHT22;10134;50.952;6.930;2023-06-05T13:22:08;25.60;57.40
19945;DHT22;10134;50.952;6.930;2023-06-05T13:24:35;25.70;57.00
19945;DHT22;10134;50.952;6.930;2023-06-05T13:27:03;25.80;56.60
19945;DHT22;10134;50.952;6.930;2023-06-05T13:29:31;25.90;56.40
19945;DHT22;10134;50.952;6.930;2023-06-05T13:31:58;26.00;56.40
19945;DHT22;10134;50.952;6.930;2023-06-05T13:34:25;26.10;56.60
19945;DHT22;10134;50.952;6.930;2023-06-05T13:36:56;26.20;56.80
19945;DHT22;10134;50.952;6.930;2023-06-05T13:39:36;26.40;56.80
19945;DHT22;10134;50.952;6.930;2023-06-05T13:42:04;26.50;56.50
19945;DHT22;10134;50.952;6.930;2023-06-05T13:44:32;26.60;56.90
19945;DHT22;10134;50.952;6.930;2023-06-05T13:46:59;26.70;57.10
19945;DHT22;10134;50.952;6.930;2023-06-05T13:49:31;26.80;56.20
19945;DHT22;10134;50.952;6.930;2023-06-05T13:51:59;26.90;56.70
19945;DHT22;10134;50.952;6.930;2023-06-05T13:54:26;26.90;56.10
19945;DHT22;10134;50.952;6.930;2023-06-05T13:56:54;26.90;55.70
19945;DHT22;10134;50.952;6.930;2023-06-05T13:59:21;27.00;55.80
19945;DHT22;10134;50.952;6.930;2023-06-05T14:01:48;27.00;56.20
19945;DHT22;10134;50.952;6.930;2023-06-05T14:04:16;27.00;56.10
19945;DHT22;10134;50.952;6.930;2023-06-05T14:06:43;27.10;56.20
19945;DHT22;10134;50.952;6.930;2023-06-05T14:09:11;27.10;56.40
19945;DHT22;10134;50.952;6.930;2023-06-05T14:11:38;27.20;56.30
19945;DHT22;10134;50.952;6.930;2023-06-05T14:14:11;27.20;56.70
19945;DHT22;10134;50.952;6.930;2023-06-05T14:16:38;27.30;57.30
19945;DHT22;10134;50.952;6.930;2023-06-05T14:19:06;27.40;57.10
19945;DHT22;10134;50.952;6.930;2023-06-05T14:21:33;27.50;57.50
19945;DHT22;10134;50.952;6.930;2023-06-05T14:24:01;27.60;57.60
19945;DHT22;10134;50.952;6.930;2023-06-05T14:26:28;27.60;56.60
19945;DHT22;10134;50.952;6.930;2023-06-05T14:28:57;27.70;56.80
19945;DHT22;10134;50.952;6.930;2023-06-05T14:31:25;27.80;57.00
19945;DHT22;10134;50.952;6.930;2023-06-05T14:33:55;27.90;56.70
19945;DHT22;10134;50.952;6.930;2023-06-05T14:36:22;27.90;56.20
19945;DHT22;10134;50.952;6.930;2023-06-05T14:38:49;27.90;55.40
19945;DHT22;10134;50.952;6.930;2023-06-05T14:41:16;28.00;55.30
19945;DHT22;10134;50.952;6.930;2023-06-05T14:43:44;27.90;54.80
19945;DHT22;10134;50.952;6.930;2023-06-05T14:46:11;27.90;54.60
19945;DHT22;10134;50.952;6.930;2023-06-05T14:48:38;27.90;55.10
19945;DHT22;10134;50.952;6.930;2023-06-05T14:51:06;28.00;55.50
19945;DHT22;10134;50.952;6.930;2023-06-05T14:53:34;28.10;56.00
19945;DHT22;10134;50.952;6.930;2023-06-05T14:56:02;28.10;56.20
19945;DHT22;10134;50.952;6.930;2023-06-05T14:58:29;28.20;56.00
19945;DHT22;10134;50.952;6.930;2023-06-05T15:00:57;28.20;56.10
19945;DHT22;10134;50.952;6.930;2023-06-05T15:03:35;28.30;56.00
19945;DHT22;10134;50.952;6.930;2023-06-05T15:06:03;28.40;56.20
19945;DHT22;10134;50.952;6.930;2023-06-05T15:08:48;28.60;56.10
19945;DHT22;10134;50.952;6.930;2023-06-05T15:11:15;28.80;55.60
19945;DHT22;10134;50.952;6.930;2023-06-05T15:13:42;28.90;54.60
19945;DHT22;10134;50.952;6.930;2023-06-05T15:16:12;28.90;54.10
19945;DHT22;10134;50.952;6.930;2023-06-05T15:18:40;29.00;54.20
19945;DHT22;10134;50.952;6.930;2023-06-05T15:21:07;29.00;54.10
19945;DHT22;10134;50.952;6.930;2023-06-05T15:23:35;29.10;54.00
19945;DHT22;10134;50.952;6.930;2023-06-05T15:26:02;29.10;53.70
19945;DHT22;10134;50.952;6.930;2023-06-05T15:28:29;29.20;53.80
19945;DHT22;10134;50.952;6.930;2023-06-05T15:30:57;29.20;53.80
19945;DHT22;10134;50.952;6.930;2023-06-05T15:33:24;29.30;53.50
19945;DHT22;10134;50.952;6.930;2023-06-05T15:35:51;29.30;53.10
19945;DHT22;10134;50.952;6.930;2023-06-05T15:38:19;29.30;52.80
19945;DHT22;10134;50.952;6.930;2023-06-05T15:40:46;29.40;52.80
19945;DHT22;10134;50.952;6.930;2023-06-05T15:43:13;29.40;53.70
19945;DHT22;10134;50.952;6.930;2023-06-05T15:45:41;29.40;52.70
19945;DHT22;10134;50.952;6.930;2023-06-05T15:48:09;29.50;52.80
19945;DHT22;10134;50.952;6.930;2023-06-05T15:50:36;29.50;52.70
19945;DHT22;10134;50.952;6.930;2023-06-05T15:53:04;29.50;52.90
19945;DHT22;10134;50.952;6.930;2023-06-05T15:55:34;29.60;52.90
19945;DHT22;10134;50.952;6.930;2023-06-05T15:58:09;29.60;52.70
19945;DHT22;10134;50.952;6.930;2023-06-05T16:00:37;29.80;52.00
19945;DHT22;10134;50.952;6.930;2023-06-05T16:03:05;30.00;51.50
19945;DHT22;10134;50.952;6.930;2023-06-05T16:05:32;30.10;51.70
19945;DHT22;10134;50.952;6.930;2023-06-05T16:07:59;30.20;51.70
19945;DHT22;10134;50.952;6.930;2023-06-05T16:10:27;30.30;51.60